createdAt,value
2018-08-19T00:02:17.651Z,4.33
2018-08-19T00:05:00.806Z,4.40
2018-08-19T00:07:30.134Z,3.60
2018-08-19T00:09:59.046Z,4.10
2018-08-19T00:12:38.526Z,3.87
2018-08-19T00:15:08.545Z,4.50
2018-08-19T00:17:38.257Z,4.37
2018-08-19T00:20:10.353Z,4.00
2018-08-19T00:22:38.924Z,4.27
2018-08-19T00:25:07.806Z,4.87
2018-08-19T00:27:37.228Z,4.80
2018-08-19T00:30:08.023Z,4.80
2018-08-19T00:32:36.553Z,4.70
2018-08-19T00:35:05.679Z,4.57
2018-08-19T00:37:34.594Z,4.00
2018-08-19T00:40:10.334Z,4.37
2018-08-19T00:42:38.833Z,3.83
2018-08-19T00:45:07.313Z,5.07
2018-08-19T00:47:35.760Z,5.00
2018-08-19T00:50:04.295Z,5.70
2018-08-19T00:52:32.801Z,4.90
2018-08-19T00:55:01.302Z,5.10
2018-08-19T00:57:29.860Z,4.90
2018-08-19T00:59:58.573Z,4.90
2018-08-19T01:02:27.331Z,6.23
2018-08-19T01:04:55.822Z,5.50
2018-08-19T01:07:24.685Z,5.20
2018-08-19T01:09:53.261Z,5.07
2018-08-19T01:12:22.683Z,5.50
2018-08-19T01:14:51.193Z,5.40
2018-08-19T01:17:26.673Z,4.90
2018-08-19T01:19:59.360Z,5.80
2018-08-19T01:22:27.828Z,6.00
2018-08-19T01:24:56.536Z,5.40
2018-08-19T01:27:25.083Z,5.33
2018-08-19T01:29:53.635Z,5.27
2018-08-19T01:32:22.263Z,5.20
2018-08-19T01:34:51.092Z,4.80
2018-08-19T01:37:19.705Z,4.80
2018-08-19T01:39:48.296Z,5.57
2018-08-19T01:42:16.800Z,5.27
2018-08-19T01:44:45.336Z,5.40
2018-08-19T01:47:13.946Z,6.20
2018-08-19T01:49:42.779Z,5.97
2018-08-19T01:52:11.429Z,6.10
2018-08-19T01:54:40.195Z,6.33
2018-08-19T01:57:08.650Z,7.10
2018-08-19T01:59:37.378Z,8.37
2018-08-19T02:02:06.902Z,8.07
2018-08-19T02:04:56.058Z,7.33
2018-08-19T02:07:24.716Z,6.43
2018-08-19T02:09:59.820Z,7.13
2018-08-19T02:12:32.517Z,6.97
2018-08-19T02:15:01.828Z,7.50
2018-08-19T02:17:30.482Z,9.33
2018-08-19T02:19:59.884Z,10.10
2018-08-19T02:22:28.503Z,10.90
2018-08-19T02:24:58.646Z,10.13
2018-08-19T02:27:28.062Z,11.60
2018-08-19T02:29:57.216Z,11.13
2018-08-19T02:32:25.716Z,10.33
2018-08-19T02:34:56.232Z,10.53
2018-08-19T02:37:28.108Z,10.83
2018-08-19T02:39:57.295Z,10.83
2018-08-19T02:42:30.545Z,11.10
2018-08-19T02:45:05.310Z,12.70
2018-08-19T02:47:34.292Z,11.80
2018-08-19T02:50:02.731Z,13.67
2018-08-19T02:52:32.315Z,12.07
2018-08-19T02:55:05.545Z,13.90
2018-08-19T02:57:34.769Z,13.43
2018-08-19T03:02:54.118Z,14.00
2018-08-19T03:05:22.547Z,15.90
2018-08-19T03:07:52.000Z,16.90
2018-08-19T03:10:21.095Z,15.57
2018-08-19T03:12:50.410Z,14.53
2018-08-19T03:15:19.005Z,16.23
2018-08-19T03:17:47.908Z,14.87
2018-08-19T03:20:17.275Z,14.57
2018-08-19T03:22:46.039Z,13.90
2018-08-19T03:25:15.177Z,13.30
2018-08-19T03:27:44.332Z,14.30
2018-08-19T03:30:16.082Z,12.80
2018-08-19T03:32:50.939Z,14.60
2018-08-19T03:35:21.318Z,12.50
2018-08-19T03:37:52.374Z,15.40
2018-08-19T03:40:23.976Z,14.97
2018-08-19T03:42:52.979Z,17.63
2018-08-19T03:45:22.855Z,15.10
2018-08-19T03:47:52.303Z,14.40
2018-08-19T03:50:23.885Z,17.00
2018-08-19T03:52:52.921Z,16.90
2018-08-19T03:55:25.510Z,14.67
2018-08-19T03:57:58.119Z,17.43
2018-08-19T04:00:27.545Z,16.67
2018-08-19T04:02:56.943Z,17.27
2018-08-19T04:05:41.163Z,19.03
2018-08-19T04:08:11.435Z,15.77
2018-08-19T04:10:41.277Z,15.60
2018-08-19T04:13:38.170Z,17.37
2018-08-19T04:16:08.036Z,16.60
2018-08-19T04:18:39.780Z,19.30
2018-08-19T04:21:17.045Z,20.73
2018-08-19T04:23:47.845Z,22.63
2018-08-19T04:26:16.419Z,24.57
2018-08-19T04:28:45.519Z,24.67
2018-08-19T04:31:20.014Z,23.90
2018-08-19T04:33:49.026Z,22.20
2018-08-19T04:36:18.856Z,21.50
2018-08-19T04:38:47.396Z,20.93
2018-08-19T04:41:16.034Z,22.53
2018-08-19T04:43:45.024Z,23.30
2018-08-19T04:46:14.326Z,23.50
2018-08-19T04:48:45.821Z,27.60
2018-08-19T04:51:16.653Z,26.00
2018-08-19T04:53:48.022Z,27.10
2018-08-19T04:56:18.436Z,27.60
2018-08-19T04:58:51.372Z,28.20
2018-08-19T05:01:20.316Z,26.80
2018-08-19T05:03:49.022Z,25.80
2018-08-19T05:06:17.714Z,27.90
2018-08-19T05:08:46.309Z,24.73
2018-08-19T05:11:14.816Z,25.40
2018-08-19T05:13:43.291Z,25.13
2018-08-19T05:16:11.733Z,27.07
2018-08-19T05:18:42.104Z,27.30
2018-08-19T05:21:14.827Z,26.80
2018-08-19T05:23:43.419Z,24.43
2018-08-19T05:26:13.059Z,25.70
2018-08-19T05:28:42.043Z,25.13
2018-08-19T05:31:10.583Z,25.70
2018-08-19T05:33:41.581Z,26.43
2018-08-19T05:36:10.083Z,25.53
2018-08-19T05:38:38.639Z,26.40
2018-08-19T05:41:09.684Z,24.27
2018-08-19T05:43:38.335Z,21.47
2018-08-19T05:46:07.010Z,21.17
2018-08-19T05:48:35.693Z,20.50
2018-08-19T05:51:04.119Z,18.23
2018-08-19T05:53:34.023Z,17.43
2018-08-19T05:56:02.505Z,17.37
2018-08-19T05:58:31.021Z,16.50
2018-08-19T06:01:00.887Z,14.83
2018-08-19T06:03:29.785Z,15.20
2018-08-19T06:05:58.652Z,14.53
2018-08-19T06:08:27.243Z,15.97
2018-08-19T06:10:56.779Z,15.10
2018-08-19T06:13:27.941Z,14.60
2018-08-19T06:15:56.579Z,12.57
2018-08-19T06:18:25.111Z,12.60
2018-08-19T06:20:53.657Z,13.30
2018-08-19T06:23:22.118Z,12.73
2018-08-19T06:25:50.577Z,11.67
2018-08-19T06:28:19.116Z,11.10
2018-08-19T06:30:47.766Z,10.80
2018-08-19T06:33:16.199Z,9.20
2018-08-19T06:35:44.685Z,10.50
2018-08-19T06:38:13.186Z,10.40
2018-08-19T06:40:41.802Z,9.50
2018-08-19T06:43:10.527Z,9.60
2018-08-19T06:45:39.105Z,8.60
2018-08-19T06:48:07.708Z,8.80
2018-08-19T06:50:36.170Z,8.50
2018-08-19T06:53:04.578Z,7.50
2018-08-19T06:55:33.027Z,6.20
2018-08-19T06:58:01.516Z,6.40
2018-08-19T07:00:31.144Z,5.60
2018-08-19T07:03:02.102Z,4.90
2018-08-19T07:05:31.040Z,6.17
2018-08-19T07:07:59.527Z,5.43
2018-08-19T07:10:35.316Z,5.20
2018-08-19T07:13:06.902Z,4.60
2018-08-19T07:15:36.308Z,4.33
2018-08-19T07:18:05.551Z,3.60
2018-08-19T07:20:34.233Z,4.47
2018-08-19T07:23:02.865Z,3.70
2018-08-19T07:25:31.819Z,3.10
2018-08-19T07:28:00.408Z,3.60
2018-08-19T07:30:29.112Z,4.07
2018-08-19T07:32:57.943Z,3.50
2018-08-19T07:35:26.559Z,3.87
2018-08-19T07:37:55.170Z,4.30
2018-08-19T07:40:23.790Z,3.67
2018-08-19T07:42:52.251Z,4.27
2018-08-19T07:45:20.908Z,3.93
2018-08-19T07:47:49.561Z,3.70
2018-08-19T07:50:18.312Z,4.23
2018-08-19T07:52:46.868Z,4.50
2018-08-19T07:55:15.484Z,3.80
2018-08-19T07:57:43.997Z,4.20
2018-08-19T08:00:13.043Z,4.30
2018-08-19T08:02:42.382Z,3.40
2018-08-19T08:05:11.335Z,4.80
2018-08-19T08:07:44.196Z,4.97
2018-08-19T08:10:12.647Z,3.00
2018-08-19T08:12:41.147Z,2.87
2018-08-19T08:15:09.677Z,3.37
2018-08-19T08:17:38.847Z,3.27
2018-08-19T08:20:08.057Z,3.10
2018-08-19T08:22:37.632Z,3.10
2018-08-19T08:25:09.647Z,2.53
2018-08-19T08:27:38.390Z,2.00
2018-08-19T08:30:10.152Z,3.10
2018-08-19T08:32:39.020Z,2.30
2018-08-19T08:35:08.423Z,2.57
2018-08-19T08:37:36.943Z,2.30
2018-08-19T08:40:08.607Z,2.47
2018-08-19T08:42:41.690Z,2.70
2018-08-19T08:45:12.511Z,2.37
2018-08-19T08:47:41.399Z,2.90
2018-08-19T08:50:11.078Z,2.17
2018-08-19T08:52:42.018Z,2.20
2018-08-19T08:55:12.178Z,2.07
2018-08-19T08:57:40.773Z,3.37
2018-08-19T09:00:10.429Z,2.10
2018-08-19T09:02:39.027Z,1.50
2018-08-19T09:05:09.858Z,1.93
2018-08-19T09:07:38.725Z,2.57
2018-08-19T09:10:07.319Z,2.43
2018-08-19T09:12:50.414Z,2.10
2018-08-19T09:15:19.176Z,2.70
2018-08-19T09:17:47.851Z,2.60
2018-08-19T09:20:16.625Z,2.13
2018-08-19T09:22:46.053Z,2.37
2018-08-19T09:25:14.656Z,1.97
2018-08-19T09:27:44.030Z,2.57
2018-08-19T09:30:17.763Z,1.83
2018-08-19T09:32:57.958Z,2.33
2018-08-19T09:35:28.142Z,1.30
2018-08-19T09:38:16.015Z,1.60
2018-08-19T09:40:44.815Z,1.40
2018-08-19T09:43:13.660Z,1.43
2018-08-19T09:45:42.569Z,1.43
2018-08-19T09:48:12.589Z,1.70
2018-08-19T09:50:41.752Z,1.70
2018-08-19T09:53:10.252Z,1.70
2018-08-19T09:55:47.452Z,1.70
2018-08-19T09:58:19.826Z,2.37
2018-08-19T10:00:53.824Z,2.30
2018-08-19T10:03:22.350Z,1.70
2018-08-19T10:05:50.865Z,1.83
2018-08-19T10:08:21.700Z,2.10
2018-08-19T10:10:50.465Z,1.67
2018-08-19T10:13:18.897Z,1.93
2018-08-19T10:15:47.419Z,2.43
2018-08-19T10:18:15.923Z,1.57
2018-08-19T10:20:44.481Z,1.77
2018-08-19T10:23:12.938Z,1.67
2018-08-19T10:25:41.817Z,1.70
2018-08-19T10:28:10.463Z,2.00
2018-08-19T10:30:44.718Z,2.13
2018-08-19T10:33:13.431Z,2.23
2018-08-19T10:35:41.820Z,1.83
2018-08-19T10:38:10.357Z,1.70
2018-08-19T10:40:38.887Z,1.63
2018-08-19T10:43:08.613Z,1.60
2018-08-19T10:45:41.102Z,1.53
2018-08-19T10:48:10.818Z,1.13
2018-08-19T10:50:39.499Z,1.30
2018-08-19T10:53:13.599Z,1.90
2018-08-19T10:55:42.300Z,1.40
2018-08-19T10:58:11.017Z,1.83
2018-08-19T11:00:39.804Z,1.33
2018-08-19T11:03:23.012Z,1.80
2018-08-19T11:05:53.030Z,1.60
2018-08-19T11:08:24.233Z,1.60
2018-08-19T11:10:52.912Z,1.90
2018-08-19T11:13:25.192Z,1.87
2018-08-19T11:15:57.522Z,2.87
2018-08-19T11:18:33.258Z,2.00
2018-08-19T11:21:07.026Z,1.53
2018-08-19T11:23:37.075Z,1.03
2018-08-19T11:26:06.272Z,1.57
2018-08-19T11:28:37.254Z,1.70
2018-08-19T11:31:06.525Z,1.53
2018-08-19T11:33:40.654Z,1.40
2018-08-19T11:36:11.066Z,1.93
2018-08-19T11:38:40.454Z,1.70
2018-08-19T11:41:10.202Z,1.47
2018-08-19T11:43:42.247Z,1.90
2018-08-19T11:46:11.603Z,1.63
2018-08-19T11:48:40.847Z,1.50
2018-08-19T11:51:09.867Z,1.90
2018-08-19T11:53:38.528Z,1.53
2018-08-19T11:56:07.226Z,1.60
2018-08-19T11:58:43.115Z,1.77
2018-08-19T12:01:14.327Z,2.07
2018-08-19T12:04:01.306Z,3.30
2018-08-19T12:06:31.116Z,1.90
2018-08-19T12:09:01.089Z,2.40
2018-08-19T12:11:31.408Z,2.30
2018-08-19T12:14:03.090Z,2.33
2018-08-19T12:16:31.728Z,2.40
2018-08-19T12:19:08.267Z,2.60
2018-08-19T12:21:43.486Z,2.40
2018-08-19T12:24:30.528Z,2.50
2018-08-19T12:27:00.466Z,2.40
2018-08-19T12:29:30.243Z,2.90
2018-08-19T12:32:09.905Z,2.90
2018-08-19T12:34:39.596Z,3.40
2018-08-19T12:37:09.324Z,3.30
2018-08-19T12:39:39.285Z,3.33
2018-08-19T12:42:09.605Z,2.93
2018-08-19T12:44:38.928Z,3.20
2018-08-19T12:47:15.207Z,3.23
2018-08-19T12:49:50.702Z,3.43
2018-08-19T12:52:22.654Z,3.20
2018-08-19T12:54:57.445Z,3.00
2018-08-19T12:57:28.424Z,3.50
2018-08-19T13:00:04.349Z,3.50
2018-08-19T13:02:34.986Z,3.50
2018-08-19T13:05:03.981Z,4.03
2018-08-19T13:07:33.296Z,3.60
2018-08-19T13:10:02.792Z,4.00
2018-08-19T13:12:36.611Z,3.33
2018-08-19T13:15:06.301Z,3.70
2018-08-19T13:17:34.888Z,3.90
2018-08-19T13:20:06.749Z,3.97
2018-08-19T13:22:40.117Z,3.63
2018-08-19T13:25:08.795Z,3.80
2018-08-19T13:27:37.636Z,3.90
2018-08-19T13:30:06.318Z,3.93
2018-08-19T13:32:35.042Z,4.07
2018-08-19T13:35:03.782Z,3.77
2018-08-19T13:37:33.447Z,3.60
2018-08-19T13:40:04.968Z,4.70
2018-08-19T13:42:35.518Z,3.20
2018-08-19T13:45:10.389Z,4.70
2018-08-19T13:47:40.113Z,4.40
2018-08-19T13:50:09.205Z,5.00
2018-08-19T13:52:38.052Z,4.10
2018-08-19T13:55:15.084Z,4.33
2018-08-19T13:57:44.016Z,4.17
2018-08-19T14:00:17.224Z,4.70
2018-08-19T14:02:46.402Z,4.70
2018-08-19T14:05:15.373Z,4.20
2018-08-19T14:07:44.138Z,4.60
2018-08-19T14:10:13.747Z,4.63
2018-08-19T14:12:42.334Z,4.83
2018-08-19T14:15:11.113Z,5.10
2018-08-19T14:17:39.752Z,4.90
2018-08-19T14:20:09.108Z,5.70
2018-08-19T14:22:38.058Z,5.50
2018-08-19T14:25:07.818Z,5.30
2018-08-19T14:27:36.831Z,4.97
2018-08-19T14:30:07.243Z,5.30
2018-08-19T14:32:38.012Z,4.93
2018-08-19T14:35:06.993Z,5.00
2018-08-19T14:37:35.795Z,4.77
2018-08-19T14:40:05.769Z,5.87
2018-08-19T14:42:35.222Z,5.70
2018-08-19T14:45:07.044Z,6.43
2018-08-19T14:47:36.017Z,5.23
2018-08-19T14:50:10.277Z,6.63
2018-08-19T14:52:40.540Z,6.40
2018-08-19T14:55:13.705Z,5.23
2018-08-19T14:57:42.423Z,6.60
2018-08-19T15:00:14.036Z,6.10
2018-08-19T15:02:42.583Z,6.63
2018-08-19T15:05:15.488Z,6.37
2018-08-19T15:07:44.560Z,6.50
2018-08-19T15:10:20.255Z,6.60
2018-08-19T15:12:54.959Z,6.37
2018-08-19T15:15:27.422Z,6.67
2018-08-19T15:18:01.788Z,6.70
2018-08-19T15:20:36.747Z,6.60
2018-08-19T15:23:16.473Z,6.80
2018-08-19T15:25:45.851Z,7.17
2018-08-19T15:28:14.743Z,6.80
2018-08-19T15:30:43.648Z,6.00
2018-08-19T15:33:13.352Z,5.73
2018-08-19T15:35:42.677Z,5.47
2018-08-19T15:38:11.921Z,5.60
2018-08-19T15:40:45.435Z,6.20
2018-08-19T15:43:15.061Z,6.20
2018-08-19T15:45:53.269Z,7.10
2018-08-19T15:48:22.119Z,5.97
2018-08-19T15:51:04.708Z,6.03
2018-08-19T15:53:35.098Z,5.60
2018-08-19T15:56:05.085Z,5.00
2018-08-19T15:58:35.877Z,5.23
2018-08-19T16:01:21.230Z,5.30
2018-08-19T16:03:50.286Z,5.47
2018-08-19T16:06:22.102Z,6.57
2018-08-19T16:08:54.858Z,5.53
2018-08-19T16:11:26.186Z,6.27
2018-08-19T16:13:55.116Z,6.07
2018-08-19T16:16:29.958Z,5.00
2018-08-19T16:18:58.600Z,5.43
2018-08-19T16:21:29.077Z,5.80
2018-08-19T16:23:58.138Z,5.80
2018-08-19T16:26:29.836Z,5.10
2018-08-19T16:29:03.844Z,4.93
2018-08-19T16:31:32.733Z,7.20
2018-08-19T16:34:03.273Z,5.20
2018-08-19T16:36:32.072Z,5.60
2018-08-19T16:39:01.394Z,5.50
2018-08-19T16:41:30.160Z,5.07
2018-08-19T16:43:58.981Z,5.17
2018-08-19T16:46:28.862Z,4.77
2018-08-19T16:48:57.557Z,6.00
2018-08-19T16:51:26.343Z,5.50
2018-08-19T16:53:55.866Z,5.50
2018-08-19T16:56:24.378Z,5.97
2018-08-19T16:58:52.900Z,5.93
2018-08-19T17:01:21.519Z,6.77
2018-08-19T17:03:50.106Z,5.40
2018-08-19T17:06:18.726Z,5.00
2018-08-19T17:08:47.244Z,5.87
2018-08-19T17:11:16.479Z,5.70
2018-08-19T17:13:45.195Z,4.47
2018-08-19T17:16:13.928Z,6.10
2018-08-19T17:18:42.536Z,5.40
2018-08-19T17:21:11.163Z,7.23
2018-08-19T17:23:40.122Z,5.90
2018-08-19T17:26:19.896Z,6.70
2018-08-19T17:28:48.554Z,5.40
2018-08-19T17:31:22.123Z,5.30
2018-08-19T17:33:50.841Z,5.00
2018-08-19T17:36:25.464Z,5.80
2018-08-19T17:38:54.084Z,5.70
2018-08-19T17:41:22.572Z,5.73
2018-08-19T17:43:51.235Z,6.00
2018-08-19T17:46:20.291Z,6.57
2018-08-19T17:48:48.901Z,6.97
2018-08-19T17:51:28.585Z,6.47
2018-08-19T17:53:57.171Z,6.57
2018-08-19T17:56:28.837Z,6.50
2018-08-19T17:58:57.618Z,7.23
2018-08-19T18:01:27.403Z,6.20
2018-08-19T18:03:56.320Z,6.80
2018-08-19T18:06:26.530Z,6.60
2018-08-19T18:08:57.053Z,8.37
2018-08-19T18:11:25.790Z,7.10
2018-08-19T18:13:57.089Z,6.37
2018-08-19T18:16:28.380Z,6.27
2018-08-19T18:18:59.109Z,6.63
2018-08-19T18:21:29.152Z,6.90
2018-08-19T18:23:59.402Z,6.87
2018-08-19T18:26:28.552Z,7.30
2018-08-19T18:28:58.757Z,7.00
2018-08-19T18:31:29.184Z,7.50
2018-08-19T18:34:00.616Z,5.60
2018-08-19T18:36:32.564Z,7.33
2018-08-19T18:39:04.116Z,6.10
2018-08-19T18:41:36.938Z,6.67
2018-08-19T18:44:07.754Z,6.60
2018-08-19T18:46:37.944Z,7.10
2018-08-19T18:49:11.501Z,6.20
2018-08-19T18:51:43.194Z,6.83
2018-08-19T18:54:18.345Z,6.80
2018-08-19T18:56:46.872Z,6.93
2018-08-19T18:59:15.509Z,6.30
2018-08-19T19:01:44.459Z,6.40
2018-08-19T19:04:13.106Z,6.80
2018-08-19T19:06:42.177Z,7.50
2018-08-19T19:09:11.776Z,7.30
2018-08-19T19:11:40.687Z,8.57
2018-08-19T19:14:18.167Z,6.87
2018-08-19T19:16:50.211Z,7.10
2018-08-19T19:19:20.076Z,7.30
2018-08-19T19:21:55.666Z,7.17
2018-08-19T19:24:30.043Z,7.57
2018-08-19T19:26:58.942Z,7.43
2018-08-19T19:29:29.572Z,6.60
2018-08-19T19:31:59.363Z,8.20
2018-08-19T19:34:31.277Z,7.07
2018-08-19T19:37:01.597Z,7.47
2018-08-19T19:39:30.378Z,7.97
2018-08-19T19:42:07.364Z,8.23
2018-08-19T19:44:37.065Z,6.97
2018-08-19T19:47:07.295Z,7.73
2018-08-19T19:49:44.983Z,7.60
2018-08-19T19:52:14.575Z,7.60
2018-08-19T19:54:45.644Z,7.37
2018-08-19T19:57:14.520Z,8.00
2018-08-19T19:59:43.139Z,7.83
2018-08-19T20:02:18.775Z,8.40
2018-08-19T20:04:48.028Z,7.90
2018-08-19T20:07:17.436Z,7.93
2018-08-19T20:09:46.057Z,7.47
2018-08-19T20:12:19.724Z,7.20
2018-08-19T20:14:49.108Z,7.87
2018-08-19T20:17:21.983Z,8.00
2018-08-19T20:19:50.825Z,9.13
2018-08-19T20:22:20.139Z,8.00
2018-08-19T20:24:50.780Z,7.50
2018-08-19T20:27:19.335Z,7.13
2018-08-19T20:29:51.343Z,7.60
2018-08-19T20:32:21.613Z,8.23
2018-08-19T20:34:51.620Z,8.80
2018-08-19T20:37:25.314Z,7.37
2018-08-19T20:39:54.395Z,7.60
2018-08-19T20:42:23.044Z,7.43
2018-08-19T20:44:51.532Z,8.20
2018-08-19T20:47:22.720Z,8.00
2018-08-19T20:49:51.917Z,7.83
2018-08-19T20:52:32.914Z,7.40
2018-08-19T20:55:03.958Z,7.20
2018-08-19T20:57:32.930Z,8.73
2018-08-19T21:00:01.991Z,8.23
2018-08-19T21:02:30.429Z,7.90
2018-08-19T21:04:58.951Z,7.97
2018-08-19T21:07:27.466Z,7.13
2018-08-19T21:09:55.992Z,7.83
2018-08-19T21:12:24.585Z,8.60
2018-08-19T21:14:53.077Z,8.33
2018-08-19T21:17:21.528Z,6.97
2018-08-19T21:19:50.013Z,6.33
2018-08-19T21:22:18.537Z,8.07
2018-08-19T21:24:47.037Z,6.80
2018-08-19T21:27:15.600Z,7.30
2018-08-19T21:29:44.114Z,7.20
2018-08-19T21:32:12.551Z,8.13
2018-08-19T21:34:41.111Z,7.43
2018-08-19T21:37:09.640Z,9.27
2018-08-19T21:39:38.157Z,8.20
2018-08-19T21:42:06.710Z,8.10
2018-08-19T21:44:35.200Z,8.13
2018-08-19T21:47:04.338Z,8.83
2018-08-19T21:49:32.795Z,8.20
2018-08-19T21:52:01.603Z,8.07
2018-08-19T21:54:30.139Z,8.60
2018-08-19T21:56:58.649Z,7.80
2018-08-19T21:59:27.189Z,7.87
2018-08-19T22:02:00.935Z,9.13
2018-08-19T22:04:29.993Z,9.73
2018-08-19T22:06:58.468Z,8.87
2018-08-19T22:09:34.850Z,9.67
2018-08-19T22:12:05.719Z,11.90
2018-08-19T22:14:35.265Z,8.83
2018-08-19T22:17:05.111Z,8.57
2018-08-19T22:19:33.784Z,9.27
2018-08-19T22:22:02.604Z,8.60
2018-08-19T22:24:32.266Z,9.50
2018-08-19T22:27:06.271Z,9.57
2018-08-19T22:29:34.887Z,8.63
2018-08-19T22:32:03.672Z,9.53
2018-08-19T22:34:32.311Z,9.27
2018-08-19T22:37:01.626Z,8.80
2018-08-19T22:39:30.322Z,10.37
2018-08-19T22:41:58.843Z,9.53
2018-08-19T22:44:27.507Z,10.20
2018-08-19T22:46:55.983Z,11.90
2018-08-19T22:49:27.103Z,8.93
2018-08-19T22:52:00.180Z,10.23
2018-08-19T22:54:28.676Z,9.87
2018-08-19T22:56:57.067Z,10.20
2018-08-19T22:59:25.676Z,9.67
2018-08-19T23:01:54.259Z,10.67
2018-08-19T23:04:22.827Z,9.77
2018-08-19T23:06:51.420Z,9.17
2018-08-19T23:09:19.943Z,11.00
2018-08-19T23:11:48.556Z,10.03
2018-08-19T23:14:28.420Z,10.30
2018-08-19T23:16:56.898Z,9.70
2018-08-19T23:19:26.399Z,9.47
2018-08-19T23:21:55.167Z,11.20
2018-08-19T23:24:24.603Z,10.40
2018-08-19T23:26:53.024Z,10.30
2018-08-19T23:29:21.455Z,10.60
2018-08-19T23:31:49.868Z,10.57
2018-08-19T23:34:18.294Z,11.37
2018-08-19T23:36:46.738Z,12.30
2018-08-19T23:39:15.253Z,10.87
2018-08-19T23:41:43.660Z,10.10
2018-08-19T23:44:12.089Z,11.47
2018-08-19T23:46:40.503Z,11.90
2018-08-19T23:49:08.974Z,11.60
2018-08-19T23:51:37.367Z,11.73
2018-08-19T23:54:05.774Z,12.07
2018-08-19T23:56:34.192Z,14.60
2018-08-19T23:59:02.614Z,12.87
